sensor_id;sensor_type;location;lat;lon;timestamp;pressure;altitude;pressure_sealevel;temperature;humidity
35649;BME280;21768;48.562;13.414;2022-07-10T00:01:32;97757.06;;;18.21;72.03
35649;BME280;21768;48.562;13.414;2022-07-10T00:03:57;97758.75;;;18.21;71.94
35649;BME280;21768;48.562;13.414;2022-07-10T00:06:23;97760.44;;;18.20;71.87
35649;BME280;21768;48.562;13.414;2022-07-10T00:08:48;97759.56;;;18.20;72.14
35649;BME280;21768;48.562;13.414;2022-07-10T00:11:14;97769.03;;;18.22;72.17
35649;BME280;21768;48.562;13.414;2022-07-10T00:13:39;97762.97;;;18.20;72.02
35649;BME280;21768;48.562;13.414;2022-07-10T00:16:04;97757.00;;;18.20;72.25
35649;BME280;21768;48.562;13.414;2022-07-10T00:18:30;97757.94;;;18.22;72.25
35649;BME280;21768;48.562;13.414;2022-07-10T00:20:56;97747.78;;;18.23;72.16
35649;BME280;21768;48.562;13.414;2022-07-10T00:23:21;97748.66;;;18.24;72.15
35649;BME280;21768;48.562;13.414;2022-07-10T00:25:46;97748.78;;;18.27;72.25
35649;BME280;21768;48.562;13.414;2022-07-10T00:28:11;97741.81;;;18.23;72.21
35649;BME280;21768;48.562;13.414;2022-07-10T00:30:37;97743.56;;;18.24;72.45
35649;BME280;21768;48.562;13.414;2022-07-10T00:33:02;97742.88;;;18.28;72.39
35649;BME280;21768;48.562;13.414;2022-07-10T00:35:28;97745.28;;;18.25;72.33
35649;BME280;21768;48.562;13.414;2022-07-10T00:37:53;97732.47;;;18.23;72.55
35649;BME280;21768;48.562;13.414;2022-07-10T00:40:18;97728.34;;;18.27;72.48
35649;BME280;21768;48.562;13.414;2022-07-10T00:42:45;97729.97;;;18.25;72.41
35649;BME280;21768;48.562;13.414;2022-07-10T00:45:10;97725.72;;;18.25;72.39
35649;BME280;21768;48.562;13.414;2022-07-10T00:47:36;97727.34;;;18.23;72.42
35649;BME280;21768;48.562;13.414;2022-07-10T00:50:01;97726.59;;;18.26;72.64
35649;BME280;21768;48.562;13.414;2022-07-10T00:52:27;97719.81;;;18.26;72.58
35649;BME280;21768;48.562;13.414;2022-07-10T00:54:52;97712.97;;;18.25;72.70
35649;BME280;21768;48.562;13.414;2022-07-10T00:57:18;97717.19;;;18.25;72.58
35649;BME280;21768;48.562;13.414;2022-07-10T00:59:44;97724.06;;;18.26;72.68
35649;BME280;21768;48.562;13.414;2022-07-10T01:02:10;97722.31;;;18.25;72.77
35649;BME280;21768;48.562;13.414;2022-07-10T01:04:35;97721.38;;;18.23;72.79
35649;BME280;21768;48.562;13.414;2022-07-10T01:07:01;97709.41;;;18.22;72.82
35649;BME280;21768;48.562;13.414;2022-07-10T01:09:27;97707.66;;;18.21;72.86
35649;BME280;21768;48.562;13.414;2022-07-10T01:11:54;97705.03;;;18.19;72.91
35649;BME280;21768;48.562;13.414;2022-07-10T01:14:20;97702.69;;;18.24;72.68
35649;BME280;21768;48.562;13.414;2022-07-10T01:16:45;97706.97;;;18.25;72.93
35649;BME280;21768;48.562;13.414;2022-07-10T01:19:10;97698.38;;;18.23;72.80
35649;BME280;21768;48.562;13.414;2022-07-10T01:21:36;97701.75;;;18.22;73.00
35649;BME280;21768;48.562;13.414;2022-07-10T01:24:06;97694.81;;;18.19;72.96
35649;BME280;21768;48.562;13.414;2022-07-10T01:26:32;97690.47;;;18.17;72.92
35649;BME280;21768;48.562;13.414;2022-07-10T01:28:57;97683.59;;;18.16;72.87
35649;BME280;21768;48.562;13.414;2022-07-10T01:31:26;97678.25;;;18.10;72.97
35649;BME280;21768;48.562;13.414;2022-07-10T01:33:52;97678.03;;;18.04;72.95
35649;BME280;21768;48.562;13.414;2022-07-10T01:36:18;97675.28;;;17.99;73.03
35649;BME280;21768;48.562;13.414;2022-07-10T01:38:44;97669.31;;;17.98;73.11
35649;BME280;21768;48.562;13.414;2022-07-10T01:41:09;97676.91;;;17.97;73.22
35649;BME280;21768;48.562;13.414;2022-07-10T01:43:35;97674.22;;;17.94;73.13
35649;BME280;21768;48.562;13.414;2022-07-10T01:46:01;97672.41;;;17.91;73.33
35649;BME280;21768;48.562;13.414;2022-07-10T01:48:26;97674.16;;;17.92;73.36
35649;BME280;21768;48.562;13.414;2022-07-10T01:50:51;97672.53;;;17.94;73.24
35649;BME280;21768;48.562;13.414;2022-07-10T01:53:16;97674.03;;;17.89;73.26
35649;BME280;21768;48.562;13.414;2022-07-10T01:55:42;97660.47;;;17.90;73.07
35649;BME280;21768;48.562;13.414;2022-07-10T01:58:07;97667.31;;;17.91;73.22
35649;BME280;21768;48.562;13.414;2022-07-10T02:00:32;97660.47;;;17.90;73.34
35649;BME280;21768;48.562;13.414;2022-07-10T02:02:58;97666.44;;;17.91;73.42
35649;BME280;21768;48.562;13.414;2022-07-10T02:05:42;97666.50;;;17.92;73.28
35649;BME280;21768;48.562;13.414;2022-07-10T02:08:07;97668.38;;;17.96;73.40
35649;BME280;21768;48.562;13.414;2022-07-10T02:10:32;97668.38;;;17.96;73.36
35649;BME280;21768;48.562;13.414;2022-07-10T02:12:57;97667.63;;;17.99;73.32
35649;BME280;21768;48.562;13.414;2022-07-10T02:15:23;97670.31;;;18.02;73.50
35649;BME280;21768;48.562;13.414;2022-07-10T02:17:48;97669.44;;;18.01;73.39
35649;BME280;21768;48.562;13.414;2022-07-10T02:20:13;97662.59;;;18.00;73.40
35649;BME280;21768;48.562;13.414;2022-07-10T02:22:39;97661.66;;;17.98;73.49
35649;BME280;21768;48.562;13.414;2022-07-10T02:25:04;97658.09;;;17.95;73.28
35649;BME280;21768;48.562;13.414;2022-07-10T02:27:30;97656.09;;;17.88;73.27
35649;BME280;21768;48.562;13.414;2022-07-10T02:29:55;97666.00;;;17.80;73.53
35649;BME280;21768;48.562;13.414;2022-07-10T02:32:20;97664.13;;;17.76;73.43
35649;BME280;21768;48.562;13.414;2022-07-10T02:34:47;97672.53;;;17.74;73.34
35649;BME280;21768;48.562;13.414;2022-07-10T02:37:12;97675.91;;;17.73;73.55
35649;BME280;21768;48.562;13.414;2022-07-10T02:39:37;97678.50;;;17.74;73.41
35649;BME280;21768;48.562;13.414;2022-07-10T02:42:03;97673.53;;;17.77;73.49
35649;BME280;21768;48.562;13.414;2022-07-10T02:44:28;97667.69;;;17.80;73.35
35649;BME280;21768;48.562;13.414;2022-07-10T02:46:54;97669.47;;;17.82;73.37
35649;BME280;21768;48.562;13.414;2022-07-10T02:49:19;97668.66;;;17.83;73.40
35649;BME280;21768;48.562;13.414;2022-07-10T02:51:45;97660.13;;;17.83;73.40
35649;BME280;21768;48.562;13.414;2022-07-10T02:54:10;97674.34;;;17.76;73.25
35649;BME280;21768;48.562;13.414;2022-07-10T02:56:35;97662.34;;;17.74;73.38
35649;BME280;21768;48.562;13.414;2022-07-10T02:59:01;97663.22;;;17.74;73.28
35649;BME280;21768;48.562;13.414;2022-07-10T03:01:27;97677.72;;;17.75;73.36
35649;BME280;21768;48.562;13.414;2022-07-10T03:03:52;97675.97;;;17.74;73.39
35649;BME280;21768;48.562;13.414;2022-07-10T03:06:17;97673.41;;;17.74;73.53
35649;BME280;21768;48.562;13.414;2022-07-10T03:08:43;97666.69;;;17.76;73.60
35649;BME280;21768;48.562;13.414;2022-07-10T03:11:08;97657.41;;;17.78;73.33
35649;BME280;21768;48.562;13.414;2022-07-10T03:13:34;97658.97;;;17.75;73.46
35649;BME280;21768;48.562;13.414;2022-07-10T03:15:59;97650.31;;;17.71;73.39
35649;BME280;21768;48.562;13.414;2022-07-10T03:18:24;97654.59;;;17.72;73.29
35649;BME280;21768;48.562;13.414;2022-07-10T03:20:50;97646.00;;;17.70;73.35
35649;BME280;21768;48.562;13.414;2022-07-10T03:23:15;97647.75;;;17.71;73.43
35649;BME280;21768;48.562;13.414;2022-07-10T03:25:40;97650.19;;;17.68;73.26
35649;BME280;21768;48.562;13.414;2022-07-10T03:28:06;97656.03;;;17.65;73.33
35649;BME280;21768;48.562;13.414;2022-07-10T03:30:31;97653.38;;;17.64;73.42
35649;BME280;21768;48.562;13.414;2022-07-10T03:32:56;97656.75;;;17.63;73.36
35649;BME280;21768;48.562;13.414;2022-07-10T03:35:21;97654.06;;;17.60;73.44
35649;BME280;21768;48.562;13.414;2022-07-10T03:37:47;97653.97;;;17.57;73.45
35649;BME280;21768;48.562;13.414;2022-07-10T03:40:12;97647.78;;;17.52;73.40
35649;BME280;21768;48.562;13.414;2022-07-10T03:42:37;97650.19;;;17.49;73.41
35649;BME280;21768;48.562;13.414;2022-07-10T03:45:03;97645.09;;;17.49;73.60
35649;BME280;21768;48.562;13.414;2022-07-10T03:47:28;97649.31;;;17.48;73.43
35649;BME280;21768;48.562;13.414;2022-07-10T03:49:53;97647.53;;;17.46;73.38
35649;BME280;21768;48.562;13.414;2022-07-10T03:52:19;97648.19;;;17.42;73.43
35649;BME280;21768;48.562;13.414;2022-07-10T03:54:44;97654.03;;;17.39;73.40
35649;BME280;21768;48.562;13.414;2022-07-10T03:57:09;97655.50;;;17.34;73.37
35649;BME280;21768;48.562;13.414;2022-07-10T03:59:53;97653.75;;;17.33;73.42
35649;BME280;21768;48.562;13.414;2022-07-10T04:02:18;97658.13;;;17.35;73.32
35649;BME280;21768;48.562;13.414;2022-07-10T04:04:43;97658.13;;;17.35;73.35
35649;BME280;21768;48.562;13.414;2022-07-10T04:07:09;97653.16;;;17.39;73.34
35649;BME280;21768;48.562;13.414;2022-07-10T04:09:36;97650.69;;;17.40;73.42
35649;BME280;21768;48.562;13.414;2022-07-10T04:12:01;97651.63;;;17.42;73.36
35649;BME280;21768;48.562;13.414;2022-07-10T04:14:26;97648.31;;;17.45;73.40
35649;BME280;21768;48.562;13.414;2022-07-10T04:16:52;97655.25;;;17.47;73.45
35649;BME280;21768;48.562;13.414;2022-07-10T04:19:17;97650.28;;;17.50;73.31
35649;BME280;21768;48.562;13.414;2022-07-10T04:21:43;97655.56;;;17.55;73.30
35649;BME280;21768;48.562;13.414;2022-07-10T04:24:08;97661.66;;;17.58;73.37
35649;BME280;21768;48.562;13.414;2022-07-10T04:26:33;97660.03;;;17.60;73.16
35649;BME280;21768;48.562;13.414;2022-07-10T04:28:59;97664.38;;;17.63;73.41
35649;BME280;21768;48.562;13.414;2022-07-10T04:31:24;97663.69;;;17.65;73.17
35649;BME280;21768;48.562;13.414;2022-07-10T04:33:50;97650.25;;;17.70;73.12
35649;BME280;21768;48.562;13.414;2022-07-10T04:36:15;97650.44;;;17.74;73.18
35649;BME280;21768;48.562;13.414;2022-07-10T04:38:41;97654.59;;;17.72;73.20
35649;BME280;21768;48.562;13.414;2022-07-10T04:41:07;97652.94;;;17.73;73.10
35649;BME280;21768;48.562;13.414;2022-07-10T04:43:32;97651.31;;;17.75;73.09
35649;BME280;21768;48.562;13.414;2022-07-10T04:45:57;97652.31;;;17.78;73.01
35649;BME280;21768;48.562;13.414;2022-07-10T04:48:23;97657.47;;;17.80;72.90
35649;BME280;21768;48.562;13.414;2022-07-10T04:50:48;97644.66;;;17.78;73.08
35649;BME280;21768;48.562;13.414;2022-07-10T04:53:13;97648.94;;;17.79;72.88
35649;BME280;21768;48.562;13.414;2022-07-10T04:55:39;97651.59;;;17.82;72.74
35649;BME280;21768;48.562;13.414;2022-07-10T04:58:04;97645.41;;;17.76;72.71
35649;BME280;21768;48.562;13.414;2022-07-10T05:00:29;97655.59;;;17.76;72.77
35649;BME280;21768;48.562;13.414;2022-07-10T05:02:55;97641.97;;;17.75;72.81
35649;BME280;21768;48.562;13.414;2022-07-10T05:05:20;97646.50;;;17.82;72.75
35649;BME280;21768;48.562;13.414;2022-07-10T05:07:45;97654.28;;;17.85;72.63
35649;BME280;21768;48.562;13.414;2022-07-10T05:10:10;97656.16;;;17.89;72.52
35649;BME280;21768;48.562;13.414;2022-07-10T05:12:36;97652.13;;;17.94;72.36
35649;BME280;21768;48.562;13.414;2022-07-10T05:15:02;97651.31;;;17.95;72.33
35649;BME280;21768;48.562;13.414;2022-07-10T05:17:27;97655.59;;;17.96;72.30
35649;BME280;21768;48.562;13.414;2022-07-10T05:19:57;97644.56;;;17.97;72.27
35649;BME280;21768;48.562;13.414;2022-07-10T05:22:22;97655.72;;;17.99;72.17
35649;BME280;21768;48.562;13.414;2022-07-10T05:24:48;97649.94;;;18.04;72.07
35649;BME280;21768;48.562;13.414;2022-07-10T05:27:13;97662.06;;;18.09;72.25
35649;BME280;21768;48.562;13.414;2022-07-10T05:29:38;97658.94;;;18.16;71.98
35649;BME280;21768;48.562;13.414;2022-07-10T05:32:04;97665.97;;;18.22;71.89
35649;BME280;21768;48.562;13.414;2022-07-10T05:34:29;97664.47;;;18.27;71.62
35649;BME280;21768;48.562;13.414;2022-07-10T05:36:54;97667.19;;;18.31;71.69
35649;BME280;21768;48.562;13.414;2022-07-10T05:39:19;97666.44;;;18.34;71.61
35649;BME280;21768;48.562;13.414;2022-07-10T05:41:45;97675.72;;;18.32;71.26
35649;BME280;21768;48.562;13.414;2022-07-10T05:44:10;97676.66;;;18.34;71.26
35649;BME280;21768;48.562;13.414;2022-07-10T05:46:36;97672.44;;;18.34;71.31
35649;BME280;21768;48.562;13.414;2022-07-10T05:49:01;97682.59;;;18.33;71.29
35649;BME280;21768;48.562;13.414;2022-07-10T05:51:26;97685.13;;;18.33;71.11
35649;BME280;21768;48.562;13.414;2022-07-10T05:53:51;97689.22;;;18.28;71.12
35649;BME280;21768;48.562;13.414;2022-07-10T05:56:17;97685.84;;;18.29;71.05
35649;BME280;21768;48.562;13.414;2022-07-10T05:58:42;97686.47;;;18.23;70.93
35649;BME280;21768;48.562;13.414;2022-07-10T06:01:07;97678.50;;;18.16;70.93
35649;BME280;21768;48.562;13.414;2022-07-10T06:03:33;97676.13;;;18.20;71.08
35649;BME280;21768;48.562;13.414;2022-07-10T06:05:58;97677.31;;;18.28;70.88
35649;BME280;21768;48.562;13.414;2022-07-10T06:08:24;97681.69;;;18.31;70.61
35649;BME280;21768;48.562;13.414;2022-07-10T06:10:50;97678.41;;;18.35;70.46
35649;BME280;21768;48.562;13.414;2022-07-10T06:13:15;97672.28;;;18.30;70.50
35649;BME280;21768;48.562;13.414;2022-07-10T06:15:40;97669.72;;;18.30;70.40
35649;BME280;21768;48.562;13.414;2022-07-10T06:18:05;97667.66;;;18.21;70.31
35649;BME280;21768;48.562;13.414;2022-07-10T06:20:31;97671.22;;;18.25;70.43
35649;BME280;21768;48.562;13.414;2022-07-10T06:22:57;97669.53;;;18.25;70.41
35649;BME280;21768;48.562;13.414;2022-07-10T06:25:22;97672.97;;;18.26;70.37
35649;BME280;21768;48.562;13.414;2022-07-10T06:27:47;97676.44;;;18.28;70.47
35649;BME280;21768;48.562;13.414;2022-07-10T06:30:13;97673.16;;;18.32;70.41
35649;BME280;21768;48.562;13.414;2022-07-10T06:32:39;97672.66;;;18.41;70.10
35649;BME280;21768;48.562;13.414;2022-07-10T06:35:04;97679.13;;;18.53;70.04
35649;BME280;21768;48.562;13.414;2022-07-10T06:37:30;97673.56;;;18.63;69.87
35649;BME280;21768;48.562;13.414;2022-07-10T06:39:56;97669.69;;;18.73;69.56
35649;BME280;21768;48.562;13.414;2022-07-10T06:42:21;97672.44;;;18.78;69.40
35649;BME280;21768;48.562;13.414;2022-07-10T06:44:46;97676.94;;;18.85;69.08
35649;BME280;21768;48.562;13.414;2022-07-10T06:47:12;97686.75;;;18.96;68.92
35649;BME280;21768;48.562;13.414;2022-07-10T06:49:57;97678.44;;;19.02;68.49
35649;BME280;21768;48.562;13.414;2022-07-10T06:52:22;97683.56;;;19.02;68.43
35649;BME280;21768;48.562;13.414;2022-07-10T06:54:48;97678.63;;;19.08;68.49
35649;BME280;21768;48.562;13.414;2022-07-10T06:57:13;97684.22;;;19.20;68.11
35649;BME280;21768;48.562;13.414;2022-07-10T06:59:38;97677.47;;;19.22;67.83
35649;BME280;21768;48.562;13.414;2022-07-10T07:02:04;97681.59;;;19.43;67.19
35649;BME280;21768;48.562;13.414;2022-07-10T07:04:29;97685.06;;;19.68;66.87
35649;BME280;21768;48.562;13.414;2022-07-10T07:06:54;97686.03;;;19.97;66.73
35649;BME280;21768;48.562;13.414;2022-07-10T07:09:20;97687.78;;;19.98;65.57
35649;BME280;21768;48.562;13.414;2022-07-10T07:11:45;97688.41;;;19.91;65.83
35649;BME280;21768;48.562;13.414;2022-07-10T07:14:11;97693.13;;;20.06;65.81
35649;BME280;21768;48.562;13.414;2022-07-10T07:16:36;97700.00;;;20.07;65.16
35649;BME280;21768;48.562;13.414;2022-07-10T07:19:09;97691.66;;;20.13;65.63
35649;BME280;21768;48.562;13.414;2022-07-10T07:21:36;97693.25;;;20.09;64.85
35649;BME280;21768;48.562;13.414;2022-07-10T07:24:20;97697.28;;;20.01;64.85
35649;BME280;21768;48.562;13.414;2022-07-10T07:26:46;97692.09;;;19.99;64.93
35649;BME280;21768;48.562;13.414;2022-07-10T07:29:12;97688.41;;;19.91;64.64
35649;BME280;21768;48.562;13.414;2022-07-10T07:31:38;97692.97;;;20.00;64.79
35649;BME280;21768;48.562;13.414;2022-07-10T07:34:03;97690.72;;;20.11;64.84
35649;BME280;21768;48.562;13.414;2022-07-10T07:36:28;97693.59;;;20.20;64.25
35649;BME280;21768;48.562;13.414;2022-07-10T07:38:55;97691.03;;;20.20;64.16
35649;BME280;21768;48.562;13.414;2022-07-10T07:41:20;97697.13;;;20.23;63.76
35649;BME280;21768;48.562;13.414;2022-07-10T07:43:46;97689.41;;;20.22;62.82
35649;BME280;21768;48.562;13.414;2022-07-10T07:46:11;97694.63;;;20.25;62.76
35649;BME280;21768;48.562;13.414;2022-07-10T07:48:36;97698.00;;;20.24;62.10
35649;BME280;21768;48.562;13.414;2022-07-10T07:51:01;97699.56;;;20.19;61.87
35649;BME280;21768;48.562;13.414;2022-07-10T07:53:27;97696.06;;;20.17;61.59
35649;BME280;21768;48.562;13.414;2022-07-10T07:55:52;97690.94;;;20.17;61.31
35649;BME280;21768;48.562;13.414;2022-07-10T07:58:18;97686.00;;;20.23;61.04
35649;BME280;21768;48.562;13.414;2022-07-10T08:00:43;97693.06;;;20.30;61.01
35649;BME280;21768;48.562;13.414;2022-07-10T08:03:08;97688.03;;;20.33;60.94
35649;BME280;21768;48.562;13.414;2022-07-10T08:05:34;97688.06;;;20.34;60.81
35649;BME280;21768;48.562;13.414;2022-07-10T08:07:59;97690.41;;;20.52;60.77
35649;BME280;21768;48.562;13.414;2022-07-10T08:10:30;97681.19;;;20.59;60.63
35649;BME280;21768;48.562;13.414;2022-07-10T08:12:55;97686.91;;;20.50;59.03
35649;BME280;21768;48.562;13.414;2022-07-10T08:15:21;97691.34;;;20.29;59.52
35649;BME280;21768;48.562;13.414;2022-07-10T08:17:48;97683.16;;;20.14;59.46
35649;BME280;21768;48.562;13.414;2022-07-10T08:20:13;97689.97;;;20.13;59.53
35649;BME280;21768;48.562;13.414;2022-07-10T08:22:39;97680.22;;;20.28;59.34
35649;BME280;21768;48.562;13.414;2022-07-10T08:25:04;97674.34;;;20.59;59.11
35649;BME280;21768;48.562;13.414;2022-07-10T08:27:30;97680.94;;;20.80;58.54
35649;BME280;21768;48.562;13.414;2022-07-10T08:29:55;97673.13;;;21.05;57.25
35649;BME280;21768;48.562;13.414;2022-07-10T08:32:21;97670.28;;;21.24;56.35
35649;BME280;21768;48.562;13.414;2022-07-10T08:34:46;97679.25;;;21.10;54.49
35649;BME280;21768;48.562;13.414;2022-07-10T08:37:13;97676.44;;;21.01;55.53
35649;BME280;21768;48.562;13.414;2022-07-10T08:39:38;97683.91;;;20.93;54.74
35649;BME280;21768;48.562;13.414;2022-07-10T08:42:04;97688.03;;;20.88;55.69
35649;BME280;21768;48.562;13.414;2022-07-10T08:44:29;97676.50;;;21.04;55.15
35649;BME280;21768;48.562;13.414;2022-07-10T08:46:55;97678.81;;;21.23;54.51
35649;BME280;21768;48.562;13.414;2022-07-10T08:49:23;97677.00;;;21.51;54.59
35649;BME280;21768;48.562;13.414;2022-07-10T08:54:18;97673.63;;;21.86;52.67
35649;BME280;21768;48.562;13.414;2022-07-10T08:56:44;97681.41;;;21.89;52.89
35649;BME280;21768;48.562;13.414;2022-07-10T08:59:10;97676.66;;;21.70;52.48
35649;BME280;21768;48.562;13.414;2022-07-10T09:01:37;97674.91;;;21.69;53.25
35649;BME280;21768;48.562;13.414;2022-07-10T09:04:03;97682.59;;;22.00;53.02
35649;BME280;21768;48.562;13.414;2022-07-10T09:06:28;97687.94;;;22.10;52.72
35649;BME280;21768;48.562;13.414;2022-07-10T09:09:03;97688.38;;;21.93;52.24
35649;BME280;21768;48.562;13.414;2022-07-10T09:11:29;97698.78;;;21.65;52.15
35649;BME280;21768;48.562;13.414;2022-07-10T09:14:04;97695.91;;;21.54;50.78
35649;BME280;21768;48.562;13.414;2022-07-10T09:16:33;97686.28;;;21.79;50.70
35649;BME280;21768;48.562;13.414;2022-07-10T09:21:40;97701.44;;;21.68;49.64
35649;BME280;21768;48.562;13.414;2022-07-10T09:24:07;97698.59;;;21.59;50.01
35649;BME280;21768;48.562;13.414;2022-07-10T09:26:33;97702.63;;;21.82;49.81
35649;BME280;21768;48.562;13.414;2022-07-10T09:29:11;97703.72;;;22.61;48.48
35649;BME280;21768;48.562;13.414;2022-07-10T09:31:49;97699.41;;;23.85;45.79
35649;BME280;21768;48.562;13.414;2022-07-10T09:34:16;97700.13;;;24.82;44.40
35649;BME280;21768;48.562;13.414;2022-07-10T09:36:41;97698.81;;;25.09;43.05
35649;BME280;21768;48.562;13.414;2022-07-10T09:39:06;97710.78;;;25.04;41.25
35649;BME280;21768;48.562;13.414;2022-07-10T09:41:32;97709.66;;;24.86;40.81
35649;BME280;21768;48.562;13.414;2022-07-10T09:49:00;97694.63;;;25.19;40.52
35649;BME280;21768;48.562;13.414;2022-07-10T09:51:26;97696.97;;;25.75;41.28
35649;BME280;21768;48.562;13.414;2022-07-10T09:53:54;97698.78;;;26.93;39.54
35649;BME280;21768;48.562;13.414;2022-07-10T09:56:21;97700.41;;;26.75;36.89
35649;BME280;21768;48.562;13.414;2022-07-10T09:58:46;97700.56;;;27.00;38.09
35649;BME280;21768;48.562;13.414;2022-07-10T10:01:17;97691.44;;;28.43;36.14
35649;BME280;21768;48.562;13.414;2022-07-10T10:03:43;97698.28;;;27.97;36.70
35649;BME280;21768;48.562;13.414;2022-07-10T10:06:14;97704.75;;;26.80;37.02
35649;BME280;21768;48.562;13.414;2022-07-10T10:11:41;97713.28;;;26.65;36.26
35649;BME280;21768;48.562;13.414;2022-07-10T10:14:07;97705.31;;;25.53;37.04
35649;BME280;21768;48.562;13.414;2022-07-10T10:16:33;97713.63;;;24.62;37.99
35649;BME280;21768;48.562;13.414;2022-07-10T10:18:58;97715.94;;;24.44;38.04
35649;BME280;21768;48.562;13.414;2022-07-10T10:21:42;97718.00;;;25.30;38.33
35649;BME280;21768;48.562;13.414;2022-07-10T10:24:08;97702.97;;;26.74;36.82
35649;BME280;21768;48.562;13.414;2022-07-10T10:26:33;97707.66;;;27.48;35.82
35649;BME280;21768;48.562;13.414;2022-07-10T10:28:59;97706.03;;;27.73;33.68
35649;BME280;21768;48.562;13.414;2022-07-10T10:31:26;97705.91;;;27.36;35.00
35649;BME280;21768;48.562;13.414;2022-07-10T10:33:55;97699.19;;;28.11;33.47
35649;BME280;21768;48.562;13.414;2022-07-10T10:41:40;97707.00;;;28.37;32.07
35649;BME280;21768;48.562;13.414;2022-07-10T10:46:55;97700.44;;;26.82;32.75
35649;BME280;21768;48.562;13.414;2022-07-10T10:49:22;97708.16;;;26.69;33.44
35649;BME280;21768;48.562;13.414;2022-07-10T10:54:29;97698.72;;;29.85;29.35
35649;BME280;21768;48.562;13.414;2022-07-10T10:59:45;97707.22;;;32.89;25.96
35649;BME280;21768;48.562;13.414;2022-07-10T11:02:22;97702.22;;;32.75;25.83
35649;BME280;21768;48.562;13.414;2022-07-10T11:04:49;97713.84;;;31.38;27.09
35649;BME280;21768;48.562;13.414;2022-07-10T11:07:50;97716.25;;;30.78;26.38
35649;BME280;21768;48.562;13.414;2022-07-10T11:12:55;97703.31;;;29.43;27.97
35649;BME280;21768;48.562;13.414;2022-07-10T11:15:22;97705.25;;;28.55;28.12
35649;BME280;21768;48.562;13.414;2022-07-10T11:17:47;97705.19;;;27.71;28.64
35649;BME280;21768;48.562;13.414;2022-07-10T11:20:13;97704.09;;;27.11;30.13
35649;BME280;21768;48.562;13.414;2022-07-10T11:23:00;97719.22;;;26.50;30.93
35649;BME280;21768;48.562;13.414;2022-07-10T11:25:50;97716.28;;;26.10;31.74
35649;BME280;21768;48.562;13.414;2022-07-10T11:28:25;97705.84;;;26.00;31.65
35649;BME280;21768;48.562;13.414;2022-07-10T11:30:53;97714.22;;;25.76;31.03
35649;BME280;21768;48.562;13.414;2022-07-10T11:33:19;97708.75;;;25.47;31.73
35649;BME280;21768;48.562;13.414;2022-07-10T11:35:52;97713.47;;;25.12;31.71
35649;BME280;21768;48.562;13.414;2022-07-10T11:38:20;97698.28;;;24.71;32.31
35649;BME280;21768;48.562;13.414;2022-07-10T11:40:46;97699.78;;;24.57;32.80
35649;BME280;21768;48.562;13.414;2022-07-10T11:43:11;97691.28;;;24.64;32.90
35649;BME280;21768;48.562;13.414;2022-07-10T11:45:41;97694.44;;;24.45;33.10
35649;BME280;21768;48.562;13.414;2022-07-10T11:48:07;97695.16;;;24.36;33.14
35649;BME280;21768;48.562;13.414;2022-07-10T11:50:41;97691.13;;;24.54;33.63
35649;BME280;21768;48.562;13.414;2022-07-10T11:53:06;97693.97;;;24.72;33.64
35649;BME280;21768;48.562;13.414;2022-07-10T11:55:31;97693.34;;;24.90;33.62
35649;BME280;21768;48.562;13.414;2022-07-10T11:58:11;97693.22;;;24.81;33.52
35649;BME280;21768;48.562;13.414;2022-07-10T12:00:37;97687.84;;;24.65;33.35
35649;BME280;21768;48.562;13.414;2022-07-10T12:03:15;97694.31;;;24.37;33.82
35649;BME280;21768;48.562;13.414;2022-07-10T12:05:41;97706.69;;;24.07;34.17
35649;BME280;21768;48.562;13.414;2022-07-10T12:08:06;97688.53;;;24.02;34.14
35649;BME280;21768;48.562;13.414;2022-07-10T12:10:32;97693.88;;;24.12;34.32
35649;BME280;21768;48.562;13.414;2022-07-10T12:17:58;97691.28;;;23.62;34.78
35649;BME280;21768;48.562;13.414;2022-07-10T12:20:23;97698.75;;;23.51;34.74
35649;BME280;21768;48.562;13.414;2022-07-10T12:22:48;97700.53;;;23.52;34.76
35649;BME280;21768;48.562;13.414;2022-07-10T12:25:14;97697.03;;;23.49;34.82
35649;BME280;21768;48.562;13.414;2022-07-10T12:27:40;97692.59;;;23.41;34.88
35649;BME280;21768;48.562;13.414;2022-07-10T12:30:05;97702.28;;;23.53;35.30
35649;BME280;21768;48.562;13.414;2022-07-10T12:32:30;97706.31;;;23.86;35.50
35649;BME280;21768;48.562;13.414;2022-07-10T12:34:58;97697.22;;;24.07;34.97
35649;BME280;21768;48.562;13.414;2022-07-10T12:37:23;97712.13;;;24.22;34.55
35649;BME280;21768;48.562;13.414;2022-07-10T12:39:49;97702.09;;;24.39;34.13
35649;BME280;21768;48.562;13.414;2022-07-10T12:42:24;97704.78;;;24.47;33.58
35649;BME280;21768;48.562;13.414;2022-07-10T12:44:49;97709.91;;;24.45;33.89
35649;BME280;21768;48.562;13.414;2022-07-10T12:47:18;97712.06;;;24.19;33.95
35649;BME280;21768;48.562;13.414;2022-07-10T12:52:20;97711.72;;;24.52;33.96
35649;BME280;21768;48.562;13.414;2022-07-10T12:54:45;97717.34;;;24.83;33.90
35649;BME280;21768;48.562;13.414;2022-07-10T12:57:11;97712.13;;;24.80;34.29
35649;BME280;21768;48.562;13.414;2022-07-10T12:59:36;97723.50;;;24.91;33.86
35649;BME280;21768;48.562;13.414;2022-07-10T13:02:18;97726.56;;;24.65;33.44
35649;BME280;21768;48.562;13.414;2022-07-10T13:04:53;97732.16;;;24.37;33.82
35649;BME280;21768;48.562;13.414;2022-07-10T13:07:19;97723.72;;;24.47;33.16
35649;BME280;21768;48.562;13.414;2022-07-10T13:09:44;97727.22;;;24.52;33.56
35649;BME280;21768;48.562;13.414;2022-07-10T13:12:10;97731.53;;;24.53;33.35
35649;BME280;21768;48.562;13.414;2022-07-10T13:14:36;97729.16;;;24.65;33.13
35649;BME280;21768;48.562;13.414;2022-07-10T13:17:01;97726.59;;;24.67;33.39
35649;BME280;21768;48.562;13.414;2022-07-10T13:19:26;97725.66;;;24.62;33.77
35649;BME280;21768;48.562;13.414;2022-07-10T13:21:52;97734.63;;;24.88;33.21
35649;BME280;21768;48.562;13.414;2022-07-10T13:24:17;97734.53;;;24.81;32.84